Time;durP1;ratioP1;P1;durP2;ratioP2;P2;SDS_P1;SDS_P2;PMS_P1;PMS_P2;Temp;Humidity;BMP_temperature;BMP_pressure;BME280_temperature;BME280_humidity;BME280_pressure;Samples;Min_cycle;Max_cycle;Signal;HPM_P1;HPM_P2
2022/11/08 00:01:51;;;;;;;18.58;9.32;;;9.30;99.90;;;;;;5111667;28;20031;-69
2022/11/08 00:04:18;;;;;;;12.80;8.35;;;9.30;99.90;;;;;;5112661;28;20028;-70
2022/11/08 00:14:58;;;;;;;19.02;9.15;;;9.20;99.90;;;;;;5133096;27;20084;-71
2022/11/08 00:17:26;;;;;;;14.52;8.50;;;9.20;99.90;;;;;;5133222;27;20023;-71
2022/11/08 00:19:52;;;;;;;18.05;10.75;;;9.20;99.90;;;;;;5112248;28;20491;-70
2022/11/08 00:22:18;;;;;;;25.65;10.57;;;9.20;99.90;;;;;;5112898;28;20085;-70
2022/11/08 00:24:45;;;;;;;18.40;10.82;;;9.10;99.90;;;;;;5112526;28;20023;-68
2022/11/08 00:27:16;;;;;;;20.63;10.45;;;9.10;99.90;;;;;;5110830;28;20024;-69
2022/11/08 00:29:42;;;;;;;16.88;10.38;;;9.10;99.90;;;;;;5112685;28;20061;-70
2022/11/08 00:32:11;;;;;;;22.20;10.23;;;9.10;99.90;;;;;;5112508;28;20051;-69
2022/11/08 00:34:37;;;;;;;18.10;10.50;;;9.00;99.90;;;;;;5112806;28;20048;-69
2022/11/08 00:37:03;;;;;;;17.75;10.48;;;9.00;99.90;;;;;;5112351;28;20387;-69
2022/11/08 00:39:29;;;;;;;18.88;10.60;;;9.00;99.90;;;;;;5112783;28;20020;-69
2022/11/08 00:41:55;;;;;;;22.30;10.80;;;9.00;99.90;;;;;;5112377;28;20024;-70
2022/11/08 00:44:21;;;;;;;16.98;11.15;;;9.00;99.90;;;;;;5112753;28;20038;-69
2022/11/08 00:46:47;;;;;;;20.75;11.65;;;8.90;99.90;;;;;;5112748;28;20118;-69
2022/11/08 00:49:12;;;;;;;21.08;11.65;;;8.90;99.90;;;;;;5112252;28;20081;-69
2022/11/08 00:51:38;;;;;;;21.83;11.98;;;8.80;99.90;;;;;;5112631;28;20027;-69
2022/11/08 00:54:05;;;;;;;21.67;12.05;;;8.80;99.90;;;;;;5112171;28;20028;-69
2022/11/08 00:56:30;;;;;;;21.00;11.93;;;8.80;99.90;;;;;;5112701;28;20024;-69
2022/11/08 00:58:57;;;;;;;18.17;11.55;;;8.80;99.90;;;;;;5115064;28;20106;-70
2022/11/08 01:01:23;;;;;;;22.67;11.68;;;8.70;99.90;;;;;;5116799;28;20112;-70
2022/11/08 01:03:49;;;;;;;23.52;11.25;;;8.70;99.90;;;;;;5116565;28;20115;-70
2022/11/08 01:06:17;;;;;;;20.83;11.18;;;8.70;99.90;;;;;;5115799;28;20028;-72
2022/11/08 01:08:43;;;;;;;17.65;11.50;;;8.60;99.90;;;;;;5113712;28;20027;-70
2022/11/08 01:11:14;;;;;;;20.48;11.23;;;8.60;99.90;;;;;;5115886;28;20126;-68
2022/11/08 01:13:40;;;;;;;18.35;11.38;;;8.60;99.90;;;;;;5116525;28;20380;-70
2022/11/08 01:16:12;;;;;;;22.85;11.85;;;8.60;99.90;;;;;;5116312;28;20472;-69
2022/11/08 01:18:38;;;;;;;22.30;12.40;;;8.50;99.90;;;;;;5116509;27;20073;-70
2022/11/08 01:21:04;;;;;;;18.65;11.20;;;8.60;99.90;;;;;;5115617;28;20031;-69
2022/11/08 01:23:31;;;;;;;20.25;11.25;;;8.60;99.90;;;;;;5115862;28;20070;-69
2022/11/08 01:26:01;;;;;;;21.90;12.52;;;8.50;99.90;;;;;;5115562;28;20027;-69
2022/11/08 01:28:27;;;;;;;24.33;12.27;;;8.50;99.90;;;;;;5115982;28;20059;-68
2022/11/08 01:30:52;;;;;;;17.27;10.77;;;8.50;99.90;;;;;;5115738;28;20063;-79
2022/11/08 01:33:18;;;;;;;20.95;11.98;;;8.50;99.90;;;;;;5116059;28;20111;-70
2022/11/08 01:35:45;;;;;;;16.83;10.93;;;8.50;99.90;;;;;;5115509;28;20496;-70
2022/11/08 01:38:11;;;;;;;25.13;12.38;;;8.50;99.90;;;;;;5115600;28;20034;-69
2022/11/08 01:40:47;;;;;;;21.02;12.32;;;8.50;99.90;;;;;;5116084;28;20106;-69
2022/11/08 01:43:25;;;;;;;22.75;12.70;;;8.50;99.90;;;;;;5115746;28;20371;-68
2022/11/08 01:46:15;;;;;;;25.73;12.05;;;8.50;99.90;;;;;;5114493;28;20050;-70
2022/11/08 01:49:02;;;;;;;21.85;11.18;;;8.50;99.90;;;;;;5115902;28;20031;-69
2022/11/08 01:51:37;;;;;;;24.25;12.05;;;8.50;99.90;;;;;;5115927;27;20028;-70
2022/11/08 01:54:08;;;;;;;19.98;11.48;;;8.50;99.90;;;;;;5115093;27;20032;-69
2022/11/08 01:56:35;;;;;;;20.97;11.83;;;8.60;99.90;;;;;;5115577;28;20118;-69
2022/11/08 01:59:04;;;;;;;16.35;10.40;;;8.50;99.90;;;;;;5114999;28;20254;-70
2022/11/08 02:01:30;;;;;;;19.98;11.57;;;8.50;99.90;;;;;;5115605;28;20020;-70
2022/11/08 02:03:57;;;;;;;21.35;10.35;;;8.50;99.90;;;;;;5115031;28;20031;-70
2022/11/08 02:06:24;;;;;;;18.58;11.00;;;8.40;99.90;;;;;;5115200;27;20032;-69
2022/11/08 02:08:50;;;;;;;18.35;10.93;;;8.40;99.90;;;;;;5114630;28;20027;-68
2022/11/08 02:11:17;;;;;;;18.05;10.43;;;8.40;99.90;;;;;;5115054;28;20483;-69
2022/11/08 02:13:43;;;;;;;21.33;12.25;;;8.40;99.90;;;;;;5115305;28;20035;-68
2022/11/08 02:16:14;;;;;;;20.05;10.82;;;8.40;99.90;;;;;;5114896;28;20028;-69
2022/11/08 02:18:41;;;;;;;16.85;10.70;;;8.30;99.90;;;;;;5115265;28;20024;-70
2022/11/08 02:21:25;;;;;;;16.40;9.85;;;8.30;99.90;;;;;;5114789;28;20139;-69
2022/11/08 02:23:57;;;;;;;13.95;9.88;;;8.30;99.90;;;;;;5114656;28;20028;-71
2022/11/08 02:26:27;;;;;;;16.50;9.30;;;8.30;99.90;;;;;;5115245;28;20383;-69
2022/11/08 02:28:53;;;;;;;15.98;9.27;;;8.30;99.90;;;;;;5114733;28;20096;-70
2022/11/08 02:31:19;;;;;;;14.10;9.35;;;8.30;99.90;;;;;;5114560;28;20456;-69
2022/11/08 02:33:46;;;;;;;14.38;9.40;;;8.30;99.90;;;;;;5114776;28;20057;-69
2022/11/08 02:36:16;;;;;;;12.77;8.63;;;8.30;99.90;;;;;;5114623;28;20030;-70
2022/11/08 02:38:46;;;;;;;16.40;9.93;;;8.40;99.90;;;;;;5114673;28;20111;-70
2022/11/08 02:41:12;;;;;;;19.27;9.98;;;8.40;99.90;;;;;;5114117;28;20031;-69
2022/11/08 02:43:38;;;;;;;15.02;9.07;;;8.30;99.90;;;;;;5114336;28;20540;-69
2022/11/08 02:46:03;;;;;;;19.15;9.90;;;8.30;99.90;;;;;;5114291;28;20475;-70
2022/11/08 02:48:29;;;;;;;14.68;9.27;;;8.30;99.90;;;;;;5114636;28;20375;-69
2022/11/08 02:50:55;;;;;;;24.15;10.25;;;8.20;99.90;;;;;;5114788;28;20325;-69
2022/11/08 02:53:20;;;;;;;18.13;11.35;;;8.20;99.90;;;;;;5114136;28;20077;-69
2022/11/08 02:55:46;;;;;;;20.27;11.80;;;8.30;99.90;;;;;;5114494;28;20030;-70
2022/11/08 02:58:12;;;;;;;22.13;11.25;;;8.20;99.90;;;;;;5110432;28;20028;-70
2022/11/08 03:00:38;;;;;;;18.38;10.77;;;8.20;99.90;;;;;;5114157;28;20023;-70
2022/11/08 03:03:04;;;;;;;17.98;10.45;;;8.20;99.90;;;;;;5114315;28;20028;-70
2022/11/08 03:05:30;;;;;;;16.75;11.00;;;8.10;99.90;;;;;;5113862;28;20059;-70
2022/11/08 03:07:57;;;;;;;21.63;12.20;;;8.10;99.90;;;;;;5114288;28;20145;-70
2022/11/08 03:10:24;;;;;;;19.50;12.48;;;8.10;99.90;;;;;;5113514;28;20110;-70
2022/11/08 03:12:56;;;;;;;20.02;13.13;;;8.10;99.90;;;;;;5114130;28;20024;-70
2022/11/08 03:15:22;;;;;;;20.55;13.80;;;8.10;99.90;;;;;;5113634;28;20038;-69
2022/11/08 03:17:48;;;;;;;21.80;13.90;;;8.10;99.90;;;;;;5114098;28;20401;-70
2022/11/08 03:20:13;;;;;;;21.50;13.57;;;8.10;99.90;;;;;;5112723;28;20020;-70
2022/11/08 03:22:39;;;;;;;21.50;14.57;;;8.00;99.90;;;;;;5113600;28;20064;-69
2022/11/08 03:25:05;;;;;;;24.15;14.15;;;8.00;99.90;;;;;;5113083;28;20038;-70
2022/11/08 03:27:31;;;;;;;21.52;14.55;;;8.00;99.90;;;;;;5113804;28;20032;-69
2022/11/08 03:29:56;;;;;;;21.10;14.02;;;8.00;99.90;;;;;;5113786;28;20117;-70
2022/11/08 03:32:22;;;;;;;22.65;15.75;;;7.90;99.90;;;;;;5113366;28;20031;-69
2022/11/08 03:34:48;;;;;;;26.15;16.13;;;7.90;99.90;;;;;;5113195;28;20392;-69
2022/11/08 03:37:14;;;;;;;29.33;16.50;;;7.90;99.90;;;;;;5113163;28;20038;-70
2022/11/08 03:39:39;;;;;;;26.13;15.95;;;7.90;99.90;;;;;;5113572;28;20027;-69
2022/11/08 03:42:06;;;;;;;29.00;16.67;;;7.80;99.90;;;;;;5113100;28;20020;-70
2022/11/08 03:44:32;;;;;;;29.85;16.38;;;7.80;99.90;;;;;;5113603;28;20357;-69
2022/11/08 03:46:59;;;;;;;28.80;16.73;;;7.80;99.90;;;;;;5113602;28;20035;-69
2022/11/08 03:49:25;;;;;;;29.25;18.10;;;7.80;99.90;;;;;;5113118;28;20024;-69
2022/11/08 03:51:54;;;;;;;29.48;17.30;;;7.80;99.90;;;;;;5113366;28;20020;-69
2022/11/08 03:54:20;;;;;;;27.65;17.85;;;7.80;99.90;;;;;;5113092;28;20036;-70
2022/11/08 03:56:45;;;;;;;27.77;17.70;;;7.70;99.90;;;;;;5113542;28;20080;-70
2022/11/08 03:59:11;;;;;;;30.88;18.35;;;7.70;99.90;;;;;;5112579;28;20463;-70
2022/11/08 04:01:38;;;;;;;33.10;18.60;;;7.70;99.90;;;;;;5113187;28;20019;-69
2022/11/08 04:04:05;;;;;;;29.92;18.77;;;7.70;99.90;;;;;;5112800;28;20104;-69
2022/11/08 04:06:31;;;;;;;29.48;17.80;;;7.60;99.90;;;;;;5112951;28;20491;-69
2022/11/08 04:08:57;;;;;;;29.73;18.25;;;7.60;99.90;;;;;;5113136;28;20043;-68
2022/11/08 04:16:53;;;;;;;31.77;18.70;;;7.50;99.90;;;;;;5112887;28;20088;-69
2022/11/08 04:22:06;;;;;;;42.08;21.60;;;7.40;99.90;;;;;;5112817;28;20477;-69
2022/11/08 04:24:31;;;;;;;40.05;21.65;;;7.40;99.90;;;;;;5112942;28;20071;-70
2022/11/08 04:26:57;;;;;;;44.30;23.00;;;7.40;99.90;;;;;;5112927;28;20058;-70
2022/11/08 04:29:23;;;;;;;41.95;22.40;;;7.30;99.90;;;;;;5112388;28;20024;-69
2022/11/08 04:31:48;;;;;;;47.33;22.30;;;7.30;99.90;;;;;;5112739;28;20028;-69
2022/11/08 04:34:14;;;;;;;53.15;22.15;;;7.20;99.90;;;;;;5111808;28;20039;-70
2022/11/08 04:36:40;;;;;;;44.50;22.52;;;7.10;99.90;;;;;;5112753;28;20027;-70
2022/11/08 04:39:05;;;;;;;48.28;22.80;;;7.10;99.90;;;;;;5112816;28;20024;-70
2022/11/08 04:41:31;;;;;;;53.90;22.88;;;7.10;99.90;;;;;;5112416;28;20384;-70
2022/11/08 04:43:57;;;;;;;85.40;20.60;;;7.10;99.90;;;;;;5112647;28;20032;-70
2022/11/08 04:46:25;;;;;;;56.28;15.90;;;7.00;99.90;;;;;;5111136;28;20081;-68
2022/11/08 04:48:52;;;;;;;59.72;17.27;;;7.00;99.90;;;;;;5111135;28;20020;-71
2022/11/08 04:51:21;;;;;;;53.47;16.27;;;6.90;99.90;;;;;;5112345;28;20036;-68
2022/11/08 04:53:47;;;;;;;54.25;17.27;;;6.90;99.90;;;;;;5112637;28;20039;-69
2022/11/08 04:56:15;;;;;;;47.60;16.83;;;6.80;99.90;;;;;;5109097;28;20024;-70
2022/11/08 04:58:43;;;;;;;29.80;17.27;;;6.80;99.90;;;;;;5112778;28;20031;-69
2022/11/08 05:01:13;;;;;;;54.70;16.52;;;6.90;99.90;;;;;;5112420;28;20050;-69
2022/11/08 05:03:38;;;;;;;31.23;16.85;;;6.70;99.90;;;;;;5112492;28;20486;-70
2022/11/08 05:06:13;;;;;;;32.95;16.35;;;6.70;99.90;;;;;;5112290;28;20020;-70
2022/11/08 05:08:39;;;;;;;36.60;16.95;;;6.60;99.90;;;;;;5112700;28;20034;-70
2022/11/08 05:11:18;;;;;;;31.35;16.80;;;6.60;99.90;;;;;;5112203;28;20106;-70
2022/11/08 05:13:44;;;;;;;25.73;17.73;;;6.60;99.90;;;;;;5111442;28;20027;-69
2022/11/08 05:16:16;;;;;;;40.17;17.65;;;6.60;99.90;;;;;;5111524;28;20028;-69
2022/11/08 05:18:42;;;;;;;33.22;17.17;;;6.50;99.90;;;;;;5112270;28;20027;-69
2022/11/08 05:23:55;;;;;;;33.90;18.67;;;6.50;99.90;;;;;;5109168;28;20100;-70
2022/11/08 05:26:20;;;;;;;30.17;19.48;;;6.40;99.90;;;;;;5111979;28;20461;-68
2022/11/08 05:28:47;;;;;;;31.38;20.20;;;6.50;99.90;;;;;;5112083;28;20027;-68
2022/11/08 05:31:13;;;;;;;30.45;19.50;;;6.50;99.90;;;;;;5112058;28;20024;-77
2022/11/08 05:33:38;;;;;;;34.78;19.63;;;6.60;99.90;;;;;;5112500;28;20044;-69
2022/11/08 05:36:10;;;;;;;33.30;20.52;;;6.60;99.90;;;;;;5112386;28;20422;-69
2022/11/08 05:38:36;;;;;;;41.80;20.08;;;6.70;99.90;;;;;;5111943;28;20024;-70
2022/11/08 05:41:06;;;;;;;30.50;20.67;;;6.70;99.90;;;;;;5112666;28;20032;-72
2022/11/08 05:43:31;;;;;;;30.90;19.13;;;6.80;99.90;;;;;;5127247;27;20110;-69
2022/11/08 05:45:57;;;;;;;31.73;18.70;;;6.80;99.90;;;;;;5118793;27;20445;-69
2022/11/08 05:48:23;;;;;;;32.85;19.15;;;6.80;99.90;;;;;;5131176;27;20027;-70
2022/11/08 05:50:49;;;;;;;33.47;18.58;;;6.80;99.90;;;;;;5124074;27;20027;-69
2022/11/08 05:53:15;;;;;;;32.25;18.33;;;6.80;99.90;;;;;;5123978;27;20028;-72
2022/11/08 05:55:41;;;;;;;43.08;21.00;;;6.80;99.90;;;;;;5115650;27;20172;-69
2022/11/08 05:58:06;;;;;;;44.45;20.40;;;6.70;99.90;;;;;;5117839;27;20503;-68
2022/11/08 06:00:32;;;;;;;40.58;21.77;;;6.70;99.90;;;;;;5113324;28;20119;-70
2022/11/08 06:02:58;;;;;;;45.17;22.77;;;6.70;99.90;;;;;;5115350;27;20387;-69
2022/11/08 06:05:23;;;;;;;40.30;22.20;;;6.60;99.90;;;;;;5115010;28;20036;-70
2022/11/08 06:07:52;;;;;;;41.63;22.05;;;6.70;99.90;;;;;;5115300;28;20109;-70
2022/11/08 06:10:17;;;;;;;51.97;23.30;;;6.70;99.90;;;;;;5115052;28;20035;-68
2022/11/08 06:12:43;;;;;;;46.58;22.60;;;6.80;99.90;;;;;;5115525;28;20035;-69
2022/11/08 06:15:09;;;;;;;58.88;25.58;;;6.80;99.90;;;;;;5115560;28;20032;-69
2022/11/08 06:17:34;;;;;;;53.95;25.52;;;6.80;99.90;;;;;;5114879;28;20099;-68
2022/11/08 06:20:00;;;;;;;50.50;26.48;;;6.80;99.90;;;;;;5115072;28;20027;-69
2022/11/08 06:22:30;;;;;;;50.13;24.85;;;6.80;99.90;;;;;;5114782;27;20019;-69
2022/11/08 06:24:55;;;;;;;57.00;25.83;;;6.80;99.90;;;;;;5115074;28;20030;-69
2022/11/08 06:27:21;;;;;;;59.50;26.85;;;6.80;99.90;;;;;;5114703;28;20099;-70
2022/11/08 06:29:47;;;;;;;55.42;27.17;;;6.80;99.90;;;;;;5114680;28;20103;-69
2022/11/08 06:32:12;;;;;;;54.08;25.98;;;6.80;99.90;;;;;;5114324;27;20045;-69
2022/11/08 06:34:38;;;;;;;51.60;25.63;;;6.90;99.90;;;;;;5114840;28;20048;-70
2022/11/08 06:37:05;;;;;;;43.83;25.58;;;6.90;99.90;;;;;;5115338;28;20068;-71
2022/11/08 06:39:30;;;;;;;50.55;27.48;;;6.90;99.90;;;;;;5113364;28;20389;-70
2022/11/08 06:41:56;;;;;;;56.95;24.23;;;7.10;99.90;;;;;;5114800;28;20505;-70
2022/11/08 06:44:21;;;;;;;48.25;24.67;;;7.10;99.90;;;;;;5114358;28;20484;-70
2022/11/08 06:46:47;;;;;;;48.00;24.08;;;7.10;99.90;;;;;;5114746;28;20424;-70
2022/11/08 06:49:13;;;;;;;52.55;23.67;;;7.10;99.90;;;;;;5114870;28;20070;-69
2022/11/08 06:51:38;;;;;;;56.53;25.17;;;7.10;99.90;;;;;;5112952;28;20027;-70
2022/11/08 06:54:07;;;;;;;45.35;24.08;;;7.10;99.90;;;;;;5114594;28;20023;-70
2022/11/08 06:56:33;;;;;;;49.45;25.85;;;7.10;99.90;;;;;;5113931;28;20114;-70
2022/11/08 06:58:59;;;;;;;50.15;22.63;;;7.10;99.90;;;;;;5114446;28;20357;-71
2022/11/08 07:01:25;;;;;;;41.45;23.77;;;7.10;99.90;;;;;;5113999;28;20072;-70
2022/11/08 07:03:50;;;;;;;43.92;22.38;;;7.10;99.90;;;;;;5110923;28;20032;-69
2022/11/08 07:06:16;;;;;;;44.70;22.88;;;7.10;99.90;;;;;;5093779;28;20028;-69
2022/11/08 07:08:42;;;;;;;45.50;22.35;;;7.10;99.90;;;;;;5093451;28;20173;-69
2022/11/08 07:11:08;;;;;;;54.90;22.35;;;7.20;99.90;;;;;;5093744;28;20039;-70
2022/11/08 07:13:34;;;;;;;44.13;23.35;;;7.20;99.90;;;;;;5093155;28;20096;-70
2022/11/08 07:16:00;;;;;;;41.10;22.25;;;7.20;99.90;;;;;;5093699;28;20028;-70
2022/11/08 07:18:27;;;;;;;47.35;23.88;;;7.20;99.90;;;;;;5093322;28;20417;-70
2022/11/08 07:20:56;;;;;;;56.38;23.10;;;7.20;99.90;;;;;;5093370;28;20070;-69
2022/11/08 07:23:22;;;;;;;43.25;22.95;;;7.20;99.90;;;;;;5092835;28;20024;-69
2022/11/08 07:25:47;;;;;;;51.65;24.83;;;7.20;99.90;;;;;;5093292;28;20393;-70
2022/11/08 07:28:17;;;;;;;37.88;23.48;;;7.30;99.90;;;;;;5093549;28;20325;-69
2022/11/08 07:30:44;;;;;;;56.78;23.77;;;7.30;99.90;;;;;;5093262;28;20028;-69
2022/11/08 07:33:10;;;;;;;43.67;24.90;;;7.20;99.90;;;;;;5093316;28;20036;-69
2022/11/08 07:35:36;;;;;;;46.35;24.60;;;7.30;99.90;;;;;;5092463;28;20531;-70
2022/11/08 07:38:02;;;;;;;44.75;24.35;;;7.30;99.90;;;;;;5093292;28;20082;-69
2022/11/08 07:40:28;;;;;;;44.80;24.42;;;7.30;99.90;;;;;;5092805;28;20020;-69
2022/11/08 07:42:57;;;;;;;58.53;24.40;;;7.30;99.90;;;;;;5093072;28;20525;-69
2022/11/08 07:45:23;;;;;;;51.03;25.75;;;7.20;99.90;;;;;;5092484;28;20357;-70
2022/11/08 07:47:59;;;;;;;45.45;23.98;;;7.20;99.90;;;;;;5092770;28;20039;-69
2022/11/08 07:50:26;;;;;;;55.97;28.90;;;7.20;99.90;;;;;;5092650;28;20042;-69
2022/11/08 07:52:51;;;;;;;62.03;26.85;;;7.20;99.90;;;;;;5092628;28;20582;-69
2022/11/08 07:55:17;;;;;;;49.72;25.27;;;7.20;99.90;;;;;;5091522;28;20128;-70
2022/11/08 07:57:43;;;;;;;49.03;24.98;;;7.30;99.90;;;;;;5092515;28;20201;-69
2022/11/08 08:00:09;;;;;;;54.47;25.40;;;7.30;99.90;;;;;;5092821;28;20103;-69
2022/11/08 08:02:35;;;;;;;43.45;25.77;;;7.30;99.90;;;;;;5092355;28;20081;-70
2022/11/08 08:05:00;;;;;;;48.97;26.63;;;7.40;99.90;;;;;;5092477;28;20028;-70
2022/11/08 08:07:26;;;;;;;56.55;27.95;;;7.40;99.90;;;;;;5091752;28;20146;-69
2022/11/08 08:09:51;;;;;;;51.35;27.55;;;7.40;99.90;;;;;;5092703;28;20042;-71
2022/11/08 08:12:17;;;;;;;52.35;27.15;;;7.50;99.90;;;;;;5092300;28;20027;-70
2022/11/08 08:14:43;;;;;;;58.83;26.17;;;7.50;99.90;;;;;;5091764;28;20085;-70
2022/11/08 08:17:09;;;;;;;51.97;28.40;;;7.50;99.90;;;;;;5092155;28;20341;-70
2022/11/08 08:19:34;;;;;;;58.63;27.60;;;7.60;99.90;;;;;;5091828;28;20028;-70
2022/11/08 08:22:00;;;;;;;52.78;27.40;;;7.50;99.90;;;;;;5092235;28;20364;-69
2022/11/08 08:24:26;;;;;;;64.00;26.60;;;7.60;99.90;;;;;;5092062;28;20024;-77
2022/11/08 08:26:52;;;;;;;49.03;25.50;;;7.60;99.90;;;;;;5092361;28;20353;-70
2022/11/08 08:29:17;;;;;;;42.97;25.95;;;7.60;99.90;;;;;;5092461;28;20089;-69
2022/11/08 08:31:43;;;;;;;51.85;25.77;;;7.60;99.90;;;;;;5091807;28;20457;-69
2022/11/08 08:34:09;;;;;;;62.42;27.17;;;7.70;99.90;;;;;;5092046;28;20542;-70
2022/11/08 08:36:34;;;;;;;58.88;25.30;;;7.70;99.90;;;;;;5092029;28;20025;-68
2022/11/08 08:39:00;;;;;;;55.15;25.48;;;7.50;99.90;;;;;;5092131;28;20020;-69
2022/11/08 08:41:26;;;;;;;40.97;23.70;;;7.60;99.90;;;;;;5097893;28;20028;-69
2022/11/08 08:43:51;;;;;;;47.60;24.17;;;7.50;99.90;;;;;;5112663;28;20445;-71
2022/11/08 08:46:17;;;;;;;43.38;22.83;;;7.50;99.90;;;;;;5112483;28;20028;-69
2022/11/08 08:48:43;;;;;;;44.63;23.40;;;7.50;99.90;;;;;;5111957;28;20031;-70
2022/11/08 08:51:08;;;;;;;46.47;23.83;;;7.50;99.90;;;;;;5112752;28;20024;-70
2022/11/08 08:53:34;;;;;;;51.70;24.52;;;7.50;99.90;;;;;;5112595;28;20111;-70
2022/11/08 08:56:01;;;;;;;47.35;23.27;;;7.50;99.90;;;;;;5112699;28;20508;-70
2022/11/08 08:58:26;;;;;;;44.53;25.10;;;7.50;99.90;;;;;;5112679;28;20030;-70
2022/11/08 09:00:52;;;;;;;49.40;23.92;;;7.50;99.90;;;;;;5112239;28;20098;-70
2022/11/08 09:03:18;;;;;;;45.10;24.35;;;7.50;99.90;;;;;;5111295;28;20099;-71
2022/11/08 09:05:45;;;;;;;44.97;23.17;;;7.50;99.90;;;;;;5111446;28;20032;-69
2022/11/08 09:08:13;;;;;;;50.15;25.05;;;7.40;99.90;;;;;;5112519;28;20032;-69
2022/11/08 09:10:39;;;;;;;41.92;22.13;;;7.40;99.90;;;;;;5112099;28;20024;-69
2022/11/08 09:13:04;;;;;;;40.25;22.63;;;7.50;99.90;;;;;;5112497;28;20370;-70
2022/11/08 09:15:30;;;;;;;46.50;22.65;;;7.50;99.90;;;;;;5112095;28;20034;-70
2022/11/08 09:17:56;;;;;;;41.90;22.75;;;7.50;99.90;;;;;;5112419;28;20031;-69
2022/11/08 09:20:24;;;;;;;42.10;23.13;;;7.50;99.90;;;;;;5115617;28;20042;-69
2022/11/08 09:22:50;;;;;;;43.00;22.90;;;7.50;99.90;;;;;;5115939;28;20027;-70
2022/11/08 09:25:16;;;;;;;41.53;22.52;;;7.50;99.90;;;;;;5116317;28;20076;-70
2022/11/08 09:27:42;;;;;;;40.38;21.25;;;7.50;99.90;;;;;;5116025;28;20035;-69
2022/11/08 09:30:08;;;;;;;62.60;23.58;;;7.50;99.90;;;;;;5116257;28;20035;-70
2022/11/08 09:32:34;;;;;;;47.13;25.13;;;7.60;99.90;;;;;;5115880;28;20464;-69
2022/11/08 09:34:59;;;;;;;41.83;23.73;;;7.60;99.90;;;;;;5115726;28;20093;-71
2022/11/08 09:37:25;;;;;;;46.83;25.30;;;7.60;99.90;;;;;;5116045;28;20027;-70
2022/11/08 09:39:51;;;;;;;43.55;24.58;;;7.60;99.90;;;;;;5115345;28;20031;-72
2022/11/08 09:42:58;;;;;;;48.10;25.25;;;7.60;99.90;;;;;;5115890;28;20046;-71
2022/11/08 09:45:30;;;;;;;53.55;26.67;;;7.70;99.90;;;;;;5114571;28;20063;-70
2022/11/08 09:48:21;;;;;;;55.13;25.98;;;7.70;99.90;;;;;;5116074;28;20020;-70
2022/11/08 09:50:50;;;;;;;49.75;26.80;;;7.70;99.90;;;;;;5115162;28;20055;-69
2022/11/08 09:53:42;;;;;;;58.78;27.27;;;7.70;99.90;;;;;;5115720;28;20023;-69
2022/11/08 09:56:22;;;;;;;58.88;28.75;;;7.70;99.90;;;;;;5115419;28;20070;-70
2022/11/08 09:58:53;;;;;;;57.15;28.67;;;7.70;99.90;;;;;;5115271;28;20024;-70
2022/11/08 10:01:21;;;;;;;67.13;30.02;;;7.70;99.90;;;;;;5115646;28;20027;-70
2022/11/08 10:03:51;;;;;;;58.40;29.92;;;7.70;99.90;;;;;;5114957;28;20036;-69
2022/11/08 10:06:19;;;;;;;58.53;28.60;;;7.70;99.90;;;;;;5115152;28;20047;-69
2022/11/08 10:09:08;;;;;;;51.83;28.30;;;7.70;99.90;;;;;;5115255;28;20031;-70
2022/11/08 10:11:53;;;;;;;55.97;27.67;;;7.70;99.90;;;;;;5114747;28;20024;-77
2022/11/08 10:14:47;;;;;;;50.72;27.88;;;7.70;99.90;;;;;;5113939;28;20059;-70
2022/11/08 10:17:35;;;;;;;57.95;28.50;;;7.80;99.90;;;;;;5084039;28;20032;-70
2022/11/08 10:20:23;;;;;;;50.40;28.38;;;7.80;99.90;;;;;;5115226;28;20030;-70
2022/11/08 10:23:04;;;;;;;50.63;27.65;;;7.80;99.90;;;;;;5114746;28;20444;-70
2022/11/08 10:25:44;;;;;;;52.70;27.40;;;7.90;99.90;;;;;;5114887;28;20461;-70
2022/11/08 10:28:16;;;;;;;51.30;25.85;;;7.80;99.90;;;;;;5114680;28;20465;-70
2022/11/08 10:30:46;;;;;;;51.85;26.85;;;7.80;99.90;;;;;;5114129;27;20024;-71
2022/11/08 10:33:17;;;;;;;50.53;27.45;;;7.80;99.90;;;;;;5115172;28;20022;-70
2022/11/08 10:35:47;;;;;;;48.55;24.38;;;7.70;99.90;;;;;;5112487;28;20464;-70
2022/11/08 10:38:29;;;;;;;42.85;25.95;;;7.80;99.90;;;;;;5114555;28;20424;-70
2022/11/08 10:41:32;;;;;;;52.50;26.25;;;7.70;99.90;;;;;;5093935;28;20037;-70
2022/11/08 10:44:10;;;;;;;51.33;27.10;;;7.80;99.90;;;;;;5094283;28;20032;-69
2022/11/08 10:46:49;;;;;;;49.60;25.83;;;7.80;99.90;;;;;;5093611;28;20513;-80
2022/11/08 10:49:33;;;;;;;49.95;25.50;;;7.80;99.90;;;;;;5094081;28;20024;-70
2022/11/08 10:52:12;;;;;;;50.90;26.08;;;7.90;99.90;;;;;;5093242;28;20023;-70
2022/11/08 10:54:48;;;;;;;45.10;25.30;;;7.90;99.90;;;;;;5093296;28;20419;-70
2022/11/08 10:57:22;;;;;;;47.13;25.52;;;8.00;99.90;;;;;;5093763;28;20028;-70
2022/11/08 10:59:48;;;;;;;50.45;27.27;;;8.00;99.90;;;;;;5093495;28;20031;-69
2022/11/08 11:02:21;;;;;;;54.22;27.55;;;8.00;99.90;;;;;;5094001;28;20024;-69
2022/11/08 11:04:48;;;;;;;47.28;25.85;;;8.00;99.90;;;;;;5093337;28;20059;-71
2022/11/08 11:07:35;;;;;;;47.42;26.58;;;8.10;99.90;;;;;;5093516;28;20028;-70
2022/11/08 11:10:16;;;;;;;51.13;26.63;;;8.10;99.90;;;;;;5093102;28;20070;-70
2022/11/08 11:12:42;;;;;;;42.63;24.38;;;8.00;99.90;;;;;;5093069;28;20123;-71
2022/11/08 11:15:14;;;;;;;48.03;26.33;;;8.00;99.90;;;;;;5103544;28;20042;-69
2022/11/08 11:17:44;;;;;;;50.10;26.98;;;8.00;99.90;;;;;;5113263;28;20020;-69
2022/11/08 11:20:21;;;;;;;45.97;24.80;;;8.00;99.90;;;;;;5113727;28;20027;-68
2022/11/08 11:22:47;;;;;;;49.97;26.15;;;8.00;99.90;;;;;;5113080;28;20024;-69
2022/11/08 11:25:16;;;;;;;50.97;27.23;;;8.00;99.90;;;;;;5113431;28;20065;-69
2022/11/08 11:27:42;;;;;;;48.75;26.65;;;8.10;99.90;;;;;;5113286;28;20038;-70
2022/11/08 11:30:32;;;;;;;44.45;24.17;;;8.00;99.90;;;;;;5113598;28;20024;-69
2022/11/08 11:33:01;;;;;;;46.85;25.17;;;8.00;99.90;;;;;;5113096;28;20046;-69
2022/11/08 11:35:35;;;;;;;48.30;26.88;;;8.00;99.90;;;;;;5113480;28;20054;-69
2022/11/08 11:38:05;;;;;;;50.70;26.48;;;8.00;99.90;;;;;;5112918;28;20128;-71
2022/11/08 11:40:39;;;;;;;41.17;23.77;;;8.10;99.90;;;;;;5113475;28;20027;-70
2022/11/08 11:43:11;;;;;;;44.83;24.90;;;8.10;99.90;;;;;;5112877;28;20469;-70
2022/11/08 11:45:50;;;;;;;46.25;23.02;;;8.10;99.90;;;;;;5113151;28;20077;-70
2022/11/08 11:48:25;;;;;;;42.58;24.25;;;8.10;99.90;;;;;;5113365;28;20039;-71
2022/11/08 11:50:51;;;;;;;37.50;23.00;;;8.10;99.90;;;;;;5112771;28;20020;-71
2022/11/08 11:53:25;;;;;;;42.65;24.25;;;8.10;99.90;;;;;;5113005;28;20034;-69
2022/11/08 11:56:18;;;;;;;41.63;23.60;;;8.20;99.90;;;;;;5112780;27;20063;-70
2022/11/08 11:59:01;;;;;;;38.40;23.92;;;8.20;99.90;;;;;;5112655;28;20049;-70
2022/11/08 12:01:54;;;;;;;43.42;23.50;;;8.30;99.90;;;;;;5112638;28;20039;-69
2022/11/08 12:04:57;;;;;;;41.88;23.88;;;8.30;99.90;;;;;;5111826;28;20353;-69
2022/11/08 12:07:26;;;;;;;42.88;23.75;;;8.30;99.90;;;;;;5113140;28;20038;-69
2022/11/08 12:10:06;;;;;;;39.95;22.67;;;8.40;99.90;;;;;;5112480;28;20023;-71
2022/11/08 12:12:50;;;;;;;40.08;23.25;;;8.40;99.90;;;;;;5112680;28;20130;-70
2022/11/08 12:15:24;;;;;;;39.65;24.45;;;8.50;99.90;;;;;;5112963;28;20069;-69
2022/11/08 12:17:56;;;;;;;42.92;24.60;;;8.50;99.90;;;;;;5112039;28;20044;-71
2022/11/08 12:20:34;;;;;;;42.92;23.70;;;8.60;99.90;;;;;;5112713;28;20027;-70
2022/11/08 12:23:19;;;;;;;44.35;24.58;;;8.50;99.90;;;;;;5112341;28;20027;-70
2022/11/08 12:26:05;;;;;;;41.17;24.55;;;8.60;99.90;;;;;;5111890;28;20110;-71
2022/11/08 12:28:52;;;;;;;40.67;23.88;;;8.60;99.90;;;;;;5112858;28;20042;-70
2022/11/08 12:31:30;;;;;;;45.05;25.48;;;8.60;99.90;;;;;;5112379;28;20047;-69
2022/11/08 12:33:56;;;;;;;39.20;23.52;;;8.70;99.90;;;;;;5111678;28;20047;-70
2022/11/08 12:36:36;;;;;;;41.45;23.67;;;8.70;99.90;;;;;;5112477;28;20075;-69
2022/11/08 12:39:26;;;;;;;42.88;23.98;;;8.70;99.90;;;;;;5112089;28;20027;-69
2022/11/08 12:42:23;;;;;;;38.40;23.80;;;8.80;99.90;;;;;;5111341;28;20415;-70
2022/11/08 12:45:26;;;;;;;43.60;24.05;;;8.80;99.90;;;;;;5111399;28;20535;-69
2022/11/08 12:48:00;;;;;;;42.17;23.92;;;8.80;99.90;;;;;;5111859;28;20031;-71
2022/11/08 12:50:52;;;;;;;40.28;24.33;;;8.90;99.90;;;;;;5112037;28;20403;-70
2022/11/08 12:53:36;;;;;;;40.80;24.17;;;8.90;99.90;;;;;;5113038;28;20031;-69
2022/11/08 12:56:09;;;;;;;37.65;22.90;;;8.90;99.90;;;;;;5116207;28;20399;-70
2022/11/08 12:58:46;;;;;;;42.72;24.42;;;8.90;99.90;;;;;;5116318;28;20538;-70
2022/11/08 13:01:14;;;;;;;42.53;23.35;;;8.90;99.90;;;;;;5115643;28;20027;-69
2022/11/08 13:03:46;;;;;;;42.65;24.02;;;9.00;99.90;;;;;;5118014;28;20024;-69
2022/11/08 13:06:19;;;;;;;40.17;23.67;;;9.00;99.90;;;;;;5119027;28;20024;-70
2022/11/08 13:09:09;;;;;;;45.03;25.67;;;9.00;99.90;;;;;;5117855;28;20157;-69
2022/11/08 13:11:55;;;;;;;40.45;23.50;;;9.10;99.90;;;;;;5117529;28;20464;-69